Airport Name : Ansbach

Other Name : Ansbach

ICAO : ETEB

IATA :

FAA :

Latitude : 49.185

Longitude : 10.383

Country : Germany

Local Date and Time : 22 May 2024 22:37

 

TAF (Terminal Aerodrome Forecast)

TAF AMD ETEB 221730Z 2217/2321 27006KT 9999 FEW030 SCT050 QNH2987INS BECMG 2301/2302 24006KT 8000 BR SCT030 QNH2996INS BECMG 2304/2305 24006KT 9999 NSW SCT030 QNH2998INS BECMG 2311/2312 29005KT 8000 -SHRA BKN050 QNH3000INS TX17/2217Z TN10/2304Z

 

METAR (METeorological Aerodrome Report)

ETEB 221955Z AUTO 23005KT 9999 SCT085 14/10 A2993 RMK AO2 SLP149 T01410101 $

ETEB 221855Z AUTO 26008KT 9999 OVC080 16/10 A2991 RMK AO2 SLP141 T01580099 $

ETEB 221755Z AUTO 28006KT 9999 SCT075 17/10 A2989 RMK AO2 SLP134 T01690098 10190 20160 53006 $

ETEB 221655Z AUTO 26009KT 9999 BKN080 17/09 A2987 RMK AO2 SLP127 T01710090 $